Time;durP1;ratioP1;P1;durP2;ratioP2;P2;SDS_P1;SDS_P2;PMS_P1;PMS_P2;Temp;Humidity;BMP_temperature;BMP_pressure;BME280_temperature;BME280_humidity;BME280_pressure;Samples;Min_cycle;Max_cycle;Signal;HPM_P1;HPM_P2
2023/03/29 00:00:49;;;;;;;;;;;;;;;13.22;65.42;101289.19;1044639;28;689;-70
2023/03/29 00:01:41;;;;;;;;;;;;;;;13.22;65.04;101291.00;1044068;28;674;-69
2023/03/29 00:02:32;;;;;;;;;;;;;;;13.22;64.62;101293.69;1044700;28;1959;-69
2023/03/29 00:03:23;;;;;;;;;;;;;;;13.20;65.65;101283.94;1044348;28;653;-70
2023/03/29 00:04:14;;;;;;;;;;;;;;;13.22;64.90;101278.47;1040555;28;633;-69
2023/03/29 00:05:05;;;;;;;;;;;;;;;13.22;65.37;101275.81;1043217;28;1545;-69
2023/03/29 00:05:56;;;;;;;;;;;;;;;13.22;65.04;101285.66;1040181;28;636;-70
2023/03/29 00:06:46;;;;;;;;;;;;;;;13.21;65.17;101276.75;1043674;28;692;-70
2023/03/29 00:07:37;;;;;;;;;;;;;;;13.21;65.15;101274.09;1039871;28;700;-70
2023/03/29 00:08:28;;;;;;;;;;;;;;;13.19;64.95;101282.22;1040478;28;653;-69
2023/03/29 00:09:18;;;;;;;;;;;;;;;13.20;65.13;101265.19;1043995;28;1305;-69
2023/03/29 00:10:09;;;;;;;;;;;;;;;13.22;65.15;101277.63;1044055;28;659;-69
2023/03/29 00:10:59;;;;;;;;;;;;;;;13.20;65.36;101283.94;1041145;28;713;-69
2023/03/29 00:11:50;;;;;;;;;;;;;;;13.20;65.08;101269.69;1043254;28;634;-70
2023/03/29 00:12:40;;;;;;;;;;;;;;;13.21;65.42;101268.72;1041801;28;693;-69
2023/03/29 00:13:31;;;;;;;;;;;;;;;13.21;65.43;101274.09;1042263;28;1004;-69
2023/03/29 00:14:21;;;;;;;;;;;;;;;13.22;65.21;101269.59;1044895;28;661;-69
2023/03/29 00:15:11;;;;;;;;;;;;;;;13.22;64.67;101278.47;1044331;28;1017;-69
2023/03/29 00:16:02;;;;;;;;;;;;;;;13.22;65.18;101267.78;1045190;28;721;-69
2023/03/29 00:16:52;;;;;;;;;;;;;;;13.23;65.74;101272.16;1043701;28;1578;-69
2023/03/29 00:17:43;;;;;;;;;;;;;;;13.23;65.06;101261.47;1041158;28;634;-69
2023/03/29 00:18:33;;;;;;;;;;;;;;;13.25;64.80;101266.72;1040895;28;1135;-69
2023/03/29 00:19:24;;;;;;;;;;;;;;;13.24;65.26;101262.31;1041155;28;685;-69
2023/03/29 00:20:15;;;;;;;;;;;;;;;13.25;65.77;101261.34;1040399;28;1143;-69
2023/03/29 00:21:05;;;;;;;;;;;;;;;13.25;65.58;101258.69;1040486;28;712;-69
2023/03/29 00:21:56;;;;;;;;;;;;;;;13.25;65.16;101259.53;1040388;28;1095;-69
2023/03/29 00:22:46;;;;;;;;;;;;;;;13.24;64.83;101260.50;1045176;28;633;-69
2023/03/29 00:23:37;;;;;;;;;;;;;;;13.22;65.62;101254.38;1040455;28;733;-69
2023/03/29 00:24:27;;;;;;;;;;;;;;;13.23;64.96;101252.56;1043864;28;995;-69
2023/03/29 00:25:17;;;;;;;;;;;;;;;13.23;65.61;101256.09;1046029;28;744;-69
2023/03/29 00:26:08;;;;;;;;;;;;;;;13.23;65.32;101242.72;1045369;28;1126;-69
2023/03/29 00:26:58;;;;;;;;;;;;;;;13.25;65.20;101237.28;1045522;28;646;-70
2023/03/29 00:27:49;;;;;;;;;;;;;;;13.26;65.77;101237.13;1041900;28;601;-69
2023/03/29 00:28:39;;;;;;;;;;;;;;;13.24;65.54;101233.72;1042631;28;742;-69
2023/03/29 00:29:31;;;;;;;;;;;;;;;13.24;65.49;101236.41;1041901;28;625;-69
2023/03/29 00:30:21;;;;;;;;;;;;;;;13.25;64.81;101235.44;1043213;28;686;-69
2023/03/29 00:31:12;;;;;;;;;;;;;;;13.24;64.87;101236.41;1045975;28;590;-69
2023/03/29 00:32:02;;;;;;;;;;;;;;;13.24;65.56;101233.72;1044836;28;773;-69
2023/03/29 00:32:52;;;;;;;;;;;;;;;13.21;65.41;101241.97;1045212;28;1186;-69
2023/03/29 00:33:43;;;;;;;;;;;;;;;13.24;65.51;101240.91;1042074;28;1487;-69
2023/03/29 00:34:36;;;;;;;;;;;;;;;13.20;65.97;101230.41;1045552;28;645;-69
2023/03/29 00:35:26;;;;;;;;;;;;;;;13.22;65.66;101234.81;1045170;28;739;-70
2023/03/29 00:36:16;;;;;;;;;;;;;;;13.22;65.22;101235.66;1041844;28;688;-70
2023/03/29 00:37:07;;;;;;;;;;;;;;;13.22;64.87;101238.34;1041658;28;999;-70
2023/03/29 00:37:58;;;;;;;;;;;;;;;13.22;64.77;101237.47;1040979;28;654;-70
2023/03/29 00:38:48;;;;;;;;;;;;;;;13.22;65.12;101232.97;1040314;28;890;-69
2023/03/29 00:39:40;;;;;;;;;;;;;;;13.19;65.06;101234.03;1040053;28;730;-70
2023/03/29 00:40:31;;;;;;;;;;;;;;;13.20;65.74;101229.56;1041026;28;626;-69
2023/03/29 00:41:21;;;;;;;;;;;;;;;13.19;65.61;101222.47;1041761;28;1119;-69
2023/03/29 00:42:12;;;;;;;;;;;;;;;13.18;64.80;101220.78;1045305;28;1878;-70
2023/03/29 00:43:02;;;;;;;;;;;;;;;13.19;65.06;101206.44;1045172;28;1083;-70
2023/03/29 00:43:53;;;;;;;;;;;;;;;13.17;64.93;101219.06;1045198;28;1703;-70
2023/03/29 00:44:43;;;;;;;;;;;;;;;13.18;65.62;101220.78;1044621;28;995;-70
2023/03/29 00:45:34;;;;;;;;;;;;;;;13.18;65.76;101220.78;1045895;28;634;-70
2023/03/29 00:46:25;;;;;;;;;;;;;;;13.17;65.40;101216.38;1045176;28;955;-70
2023/03/29 00:47:17;;;;;;;;;;;;;;;13.17;65.55;101233.28;1046021;28;637;-70
2023/03/29 00:48:07;;;;;;;;;;;;;;;13.16;65.79;101220.03;1044675;28;1016;-69
2023/03/29 00:48:57;;;;;;;;;;;;;;;13.17;65.42;101230.63;1046348;28;676;-69
2023/03/29 00:49:49;;;;;;;;;;;;;;;13.16;64.86;101230.72;1045127;28;712;-70
2023/03/29 00:50:39;;;;;;;;;;;;;;;13.17;65.56;101232.44;1041346;28;748;-69
2023/03/29 00:51:30;;;;;;;;;;;;;;;13.18;64.96;101231.47;1041666;28;1096;-69
2023/03/29 00:52:21;;;;;;;;;;;;;;;13.17;65.40;101229.75;1040432;28;1123;-70
2023/03/29 00:53:11;;;;;;;;;;;;;;;13.17;64.89;101211.03;1041222;28;622;-69
2023/03/29 00:54:02;;;;;;;;;;;;;;;13.16;65.41;101217.34;1044071;28;1444;-69
2023/03/29 00:54:52;;;;;;;;;;;;;;;13.15;65.38;101215.63;1044473;28;1570;-69
2023/03/29 00:55:43;;;;;;;;;;;;;;;13.17;65.70;101211.03;1045884;28;693;-69
2023/03/29 00:56:34;;;;;;;;;;;;;;;13.16;65.67;101207.50;1045384;28;705;-69
2023/03/29 00:57:24;;;;;;;;;;;;;;;13.17;64.93;101211.88;1043197;28;701;-69
2023/03/29 00:58:14;;;;;;;;;;;;;;;13.18;65.10;101215.41;1044778;28;1083;-69
2023/03/29 00:59:05;;;;;;;;;;;;;;;13.17;65.25;101208.34;1046209;28;647;-69
2023/03/29 00:59:56;;;;;;;;;;;;;;;13.16;64.87;101196.78;1041916;28;1243;-69
2023/03/29 01:00:46;;;;;;;;;;;;;;;13.17;64.95;101194.97;1042175;28;626;-69
2023/03/29 01:01:37;;;;;;;;;;;;;;;13.14;64.95;101196.00;1043054;28;1065;-69
2023/03/29 01:02:28;;;;;;;;;;;;;;;13.14;65.05;101197.81;1044720;28;1953;-69
2023/03/29 01:03:23;;;;;;;;;;;;;;;13.13;65.26;101202.31;1043535;28;1038;-68
2023/03/29 01:04:17;;;;;;;;;;;;;;;13.14;65.38;101193.31;1042886;28;1459;-69
2023/03/29 01:05:07;;;;;;;;;;;;;;;13.15;65.35;101194.22;1041510;28;1042;-69
2023/03/29 01:05:58;;;;;;;;;;;;;;;13.14;64.98;101192.47;1040616;28;1138;-69
2023/03/29 01:06:49;;;;;;;;;;;;;;;13.16;65.65;101196.78;1045322;28;639;-69
2023/03/29 01:07:39;;;;;;;;;;;;;;;13.16;65.62;101199.47;1042127;28;1058;-69
2023/03/29 01:08:30;;;;;;;;;;;;;;;13.15;65.74;101194.22;1041209;28;711;-69
2023/03/29 01:09:20;;;;;;;;;;;;;;;13.16;65.54;101188.75;1045632;28;637;-69
2023/03/29 01:10:11;;;;;;;;;;;;;;;13.16;65.04;101190.56;1044355;28;1340;-69
2023/03/29 01:11:01;;;;;;;;;;;;;;;13.16;65.54;101185.22;1043164;28;1491;-69
2023/03/29 01:11:51;;;;;;;;;;;;;;;13.17;65.58;101186.94;1042267;28;709;-69
2023/03/29 01:12:42;;;;;;;;;;;;;;;13.17;64.78;101197.66;1045202;28;1212;-69
2023/03/29 01:13:33;;;;;;;;;;;;;;;13.19;65.47;101195.72;1044209;28;646;-68
2023/03/29 01:14:23;;;;;;;;;;;;;;;13.19;65.26;101195.72;1044915;28;1122;-69
2023/03/29 01:15:14;;;;;;;;;;;;;;;13.17;64.77;101190.47;1045794;28;783;-69
2023/03/29 01:16:04;;;;;;;;;;;;;;;13.17;65.05;101197.66;1041777;28;706;-69
2023/03/29 01:16:55;;;;;;;;;;;;;;;13.16;65.53;101185.22;1044805;28;1050;-69
2023/03/29 01:17:49;;;;;;;;;;;;;;;13.17;65.58;101194.97;1045748;28;645;-69
2023/03/29 01:18:40;;;;;;;;;;;;;;;13.15;65.48;101189.72;1041696;28;1067;-69
2023/03/29 01:19:32;;;;;;;;;;;;;;;13.14;65.82;101197.81;1040536;28;642;-69
2023/03/29 01:20:23;;;;;;;;;;;;;;;13.14;65.10;101192.47;1045009;28;1189;-69
2023/03/29 01:21:13;;;;;;;;;;;;;;;13.14;65.53;101192.47;1045012;28;1589;-69
2023/03/29 01:22:04;;;;;;;;;;;;;;;13.14;65.59;101193.31;1042819;28;1349;-69
2023/03/29 01:22:54;;;;;;;;;;;;;;;13.13;65.37;101190.75;1045143;28;673;-69
2023/03/29 01:23:45;;;;;;;;;;;;;;;13.12;64.99;101191.72;1045216;28;1166;-69
2023/03/29 01:24:35;;;;;;;;;;;;;;;13.11;65.59;101187.34;1045534;28;673;-69
2023/03/29 01:25:25;;;;;;;;;;;;;;;13.12;65.33;101189.03;1041656;28;861;-69
2023/03/29 01:26:16;;;;;;;;;;;;;;;13.12;64.92;101194.41;1042926;28;750;-69
2023/03/29 01:27:07;;;;;;;;;;;;;;;13.13;64.83;101188.94;1041215;28;956;-69
2023/03/29 01:27:58;;;;;;;;;;;;;;;13.14;65.57;101192.47;1045255;28;709;-70
2023/03/29 01:28:48;;;;;;;;;;;;;;;13.15;65.02;101186.19;1045688;28;1055;-69
2023/03/29 01:29:38;;;;;;;;;;;;;;;13.15;64.97;101188.88;1045774;28;786;-69
2023/03/29 01:30:29;;;;;;;;;;;;;;;13.14;65.52;101187.13;1044987;28;1175;-69
2023/03/29 01:31:19;;;;;;;;;;;;;;;13.14;65.27;101187.97;1044753;28;1433;-69
2023/03/29 01:32:10;;;;;;;;;;;;;;;13.16;65.17;101185.22;1045711;28;640;-70
2023/03/29 01:33:01;;;;;;;;;;;;;;;13.16;65.12;101187.91;1042853;28;1463;-70
2023/03/29 01:33:51;;;;;;;;;;;;;;;13.15;65.35;101184.38;1041170;28;641;-70
2023/03/29 01:34:42;;;;;;;;;;;;;;;13.13;65.15;101180.06;1040476;28;707;-70
2023/03/29 01:35:33;;;;;;;;;;;;;;;13.13;65.33;101177.38;1040671;28;1313;-70
2023/03/29 01:36:25;;;;;;;;;;;;;;;13.10;64.80;101181.13;1041096;28;688;-70
2023/03/29 01:37:16;;;;;;;;;;;;;;;13.12;65.20;101181.88;1040511;28;631;-70
2023/03/29 01:38:07;;;;;;;;;;;;;;;13.12;64.78;101178.34;1044508;28;680;-69
2023/03/29 01:38:57;;;;;;;;;;;;;;;13.12;64.98;101183.69;1044878;28;1324;-70
2023/03/29 01:39:48;;;;;;;;;;;;;;;13.12;64.89;101187.22;1045186;28;606;-69
2023/03/29 01:40:38;;;;;;;;;;;;;;;13.12;65.22;101173.84;1041626;28;720;-70
2023/03/29 01:41:29;;;;;;;;;;;;;;;13.12;65.44;101175.66;1045441;28;944;-69
2023/03/29 01:42:19;;;;;;;;;;;;;;;13.11;64.93;101173.94;1045541;28;1902;-69
2023/03/29 01:43:10;;;;;;;;;;;;;;;13.11;64.80;101172.13;1042983;28;1129;-69
2023/03/29 01:44:00;;;;;;;;;;;;;;;13.13;65.27;101174.69;1044097;28;1151;-69
2023/03/29 01:44:51;;;;;;;;;;;;;;;13.15;64.71;101172.81;1041276;28;1258;-69
2023/03/29 01:45:41;;;;;;;;;;;;;;;13.12;65.29;101173.84;1044041;28;725;-69
2023/03/29 01:46:32;;;;;;;;;;;;;;;13.11;65.36;101164.09;1041636;28;633;-70
2023/03/29 01:47:22;;;;;;;;;;;;;;;13.12;64.89;101168.50;1040485;28;1235;-69
2023/03/29 01:48:12;;;;;;;;;;;;;;;13.12;64.90;101173.00;1044659;28;1223;-70
2023/03/29 01:49:03;;;;;;;;;;;;;;;13.12;64.78;101167.63;1045774;28;641;-70
2023/03/29 01:49:54;;;;;;;;;;;;;;;13.12;64.85;101164.97;1040068;28;673;-69
2023/03/29 01:50:44;;;;;;;;;;;;;;;13.12;65.69;101170.31;1041623;28;1172;-69
2023/03/29 01:51:35;;;;;;;;;;;;;;;13.12;65.46;101162.28;1041392;28;1055;-69
2023/03/29 01:52:25;;;;;;;;;;;;;;;13.13;65.67;101161.31;1041544;28;1139;-69
2023/03/29 01:53:17;;;;;;;;;;;;;;;13.12;65.61;101160.47;1043240;28;996;-69
2023/03/29 01:54:08;;;;;;;;;;;;;;;13.10;65.56;101164.22;1045027;28;1232;-69
2023/03/29 01:54:58;;;;;;;;;;;;;;;13.10;65.09;101151.69;1044492;28;1164;-69
2023/03/29 01:55:49;;;;;;;;;;;;;;;13.09;65.23;101166.03;1042225;28;1082;-70
2023/03/29 01:56:39;;;;;;;;;;;;;;;13.11;65.00;101155.22;1044372;28;1237;-69
2023/03/29 01:57:30;;;;;;;;;;;;;;;13.11;65.13;101156.06;1043583;28;1065;-69
2023/03/29 01:58:21;;;;;;;;;;;;;;;13.11;65.40;101153.41;1043922;28;1259;-69
2023/03/29 01:59:11;;;;;;;;;;;;;;;13.11;65.08;101160.56;1044321;28;1120;-70
2023/03/29 02:00:07;;;;;;;;;;;;;;;13.10;65.30;101157.03;1043878;28;1026;-69
2023/03/29 02:00:57;;;;;;;;;;;;;;;13.09;65.67;101160.69;1042251;28;1234;-70
2023/03/29 02:01:47;;;;;;;;;;;;;;;13.09;64.70;101154.47;1043973;28;1392;-70
2023/03/29 02:02:39;;;;;;;;;;;;;;;13.11;65.06;101152.53;1041995;28;1935;-70
2023/03/29 02:03:29;;;;;;;;;;;;;;;13.11;65.71;101163.25;1041722;28;1181;-70
2023/03/29 02:04:20;;;;;;;;;;;;;;;13.10;65.42;101165.06;1045575;28;646;-70
2023/03/29 02:05:11;;;;;;;;;;;;;;;13.09;65.72;101160.69;1045493;28;1119;-69
2023/03/29 02:06:02;;;;;;;;;;;;;;;13.10;65.11;101150.84;1039727;28;630;-70
2023/03/29 02:06:53;;;;;;;;;;;;;;;13.10;65.07;101146.34;1041312;28;712;-70
2023/03/29 02:07:43;;;;;;;;;;;;;;;13.09;64.99;101149.13;1043973;28;705;-70
2023/03/29 02:08:33;;;;;;;;;;;;;;;13.08;64.79;101147.41;1045203;28;618;-70
2023/03/29 02:09:24;;;;;;;;;;;;;;;13.08;65.64;101144.72;1040911;28;689;-70
2023/03/29 02:10:15;;;;;;;;;;;;;;;13.08;65.03;101150.06;1044295;28;685;-70
2023/03/29 02:11:06;;;;;;;;;;;;;;;13.08;65.57;101150.94;1042543;28;1337;-70
2023/03/29 02:11:56;;;;;;;;;;;;;;;13.09;65.68;101149.97;1044625;28;665;-70
2023/03/29 02:12:47;;;;;;;;;;;;;;;13.12;64.97;101148.91;1043226;28;887;-70
2023/03/29 02:13:37;;;;;;;;;;;;;;;13.13;65.52;101145.28;1043644;28;1130;-70
2023/03/29 02:14:29;;;;;;;;;;;;;;;13.13;64.97;101147.94;1044053;28;757;-69
2023/03/29 02:15:19;;;;;;;;;;;;;;;13.13;64.89;101154.16;1044054;28;646;-70
2023/03/29 02:16:11;;;;;;;;;;;;;;;13.11;65.81;101144.53;1044758;28;1336;-69
2023/03/29 02:17:01;;;;;;;;;;;;;;;13.13;65.83;101145.28;1043699;28;1570;-69
2023/03/29 02:17:52;;;;;;;;;;;;;;;13.12;64.87;101146.22;1044690;28;657;-69
2023/03/29 02:18:42;;;;;;;;;;;;;;;13.11;65.09;101147.19;1045361;28;681;-69
2023/03/29 02:19:33;;;;;;;;;;;;;;;13.10;65.50;101146.34;1045099;28;1040;-68
2023/03/29 02:20:23;;;;;;;;;;;;;;;13.11;65.36;101147.19;1045720;28;616;-69
2023/03/29 02:21:14;;;;;;;;;;;;;;;13.10;65.44;101146.34;1041855;28;1173;-68
2023/03/29 02:22:04;;;;;;;;;;;;;;;13.11;65.47;101133.81;1041002;28;708;-69
2023/03/29 02:22:55;;;;;;;;;;;;;;;13.12;65.45;101138.19;1039691;28;621;-69
2023/03/29 02:23:47;;;;;;;;;;;;;;;13.12;65.08;101138.19;1042167;28;1151;-69
2023/03/29 02:24:38;;;;;;;;;;;;;;;13.11;65.03;101136.50;1044956;28;681;-69
2023/03/29 02:25:28;;;;;;;;;;;;;;;13.11;65.92;101139.16;1042565;28;702;-69
2023/03/29 02:26:19;;;;;;;;;;;;;;;13.11;65.42;101139.16;1044989;28;701;-69
2023/03/29 02:27:09;;;;;;;;;;;;;;;13.12;65.65;101140.88;1044029;28;1167;-69
2023/03/29 02:28:00;;;;;;;;;;;;;;;13.11;65.23;101134.66;1044116;28;598;-69
2023/03/29 02:28:51;;;;;;;;;;;;;;;13.12;65.36;101135.53;1044324;28;1023;-69
2023/03/29 02:29:42;;;;;;;;;;;;;;;13.13;65.33;101134.56;1045944;28;724;-69
2023/03/29 02:30:32;;;;;;;;;;;;;;;13.12;65.46;101140.88;1044529;28;964;-69
2023/03/29 02:31:23;;;;;;;;;;;;;;;13.10;65.84;101134.78;1044928;28;1589;-70
2023/03/29 02:32:13;;;;;;;;;;;;;;;13.09;65.79;101135.75;1044066;28;1255;-68
2023/03/29 02:33:03;;;;;;;;;;;;;;;13.08;65.80;101123.31;1044541;28;1168;-68
2023/03/29 02:33:55;;;;;;;;;;;;;;;13.08;65.94;101132.22;1040990;28;638;-68
2023/03/29 02:34:46;;;;;;;;;;;;;;;13.10;65.46;101129.44;1040195;28;614;-71
2023/03/29 02:35:37;;;;;;;;;;;;;;;13.10;65.71;101127.59;1041352;28;654;-71
2023/03/29 02:36:28;;;;;;;;;;;;;;;13.10;65.68;101132.09;1042667;28;1226;-69
2023/03/29 02:37:18;;;;;;;;;;;;;;;13.09;65.25;101128.56;1042729;28;1154;-69
2023/03/29 02:38:10;;;;;;;;;;;;;;;13.10;65.39;101121.41;1041591;28;1387;-68
2023/03/29 02:39:00;;;;;;;;;;;;;;;13.09;65.83;101125.91;1042148;28;1011;-69
2023/03/29 02:39:51;;;;;;;;;;;;;;;13.08;65.42;101126.84;1041088;28;1162;-69
2023/03/29 02:40:41;;;;;;;;;;;;;;;13.07;64.86;101122.50;1042823;28;976;-69
2023/03/29 02:41:32;;;;;;;;;;;;;;;13.06;65.95;101125.28;1044388;28;1429;-69
2023/03/29 02:42:22;;;;;;;;;;;;;;;13.07;65.73;101124.31;1040138;28;1977;-69
2023/03/29 02:43:13;;;;;;;;;;;;;;;13.07;65.44;101124.31;1044147;28;1163;-69
2023/03/29 02:44:03;;;;;;;;;;;;;;;13.09;65.04;101122.38;1042537;28;1108;-69
2023/03/29 02:44:53;;;;;;;;;;;;;;;13.09;65.60;101119.69;1044017;28;1208;-68
2023/03/29 02:45:44;;;;;;;;;;;;;;;13.09;65.52;101115.19;1040380;28;660;-69
2023/03/29 02:46:36;;;;;;;;;;;;;;;13.09;65.40;101109.84;1044423;28;665;-70
2023/03/29 02:47:27;;;;;;;;;;;;;;;13.09;65.01;101108.97;1044056;28;1451;-70
2023/03/29 02:48:17;;;;;;;;;;;;;;;13.08;65.36;101108.13;1044987;28;809;-69
2023/03/29 02:49:08;;;;;;;;;;;;;;;13.07;65.09;101110.94;1040078;28;832;-70
2023/03/29 02:49:59;;;;;;;;;;;;;;;13.08;65.35;101109.94;1041969;28;716;-69
2023/03/29 02:50:49;;;;;;;;;;;;;;;13.07;64.84;101105.59;1041150;28;661;-69
2023/03/29 02:51:40;;;;;;;;;;;;;;;13.05;66.00;101107.50;1040247;28;712;-69
2023/03/29 02:52:32;;;;;;;;;;;;;;;13.03;65.55;101104.09;1045419;28;626;-69
2023/03/29 02:53:23;;;;;;;;;;;;;;;13.04;65.17;101100.44;1044081;28;768;-69
2023/03/29 02:54:14;;;;;;;;;;;;;;;13.04;65.42;101105.81;1040938;28;1034;-69
2023/03/29 02:55:04;;;;;;;;;;;;;;;13.06;65.28;101103.88;1044953;28;715;-69
2023/03/29 02:55:55;;;;;;;;;;;;;;;13.06;64.90;101103.88;1044590;28;1237;-69
2023/03/29 02:56:46;;;;;;;;;;;;;;;13.07;65.01;101101.09;1044857;28;633;-69
2023/03/29 02:57:38;;;;;;;;;;;;;;;13.06;65.23;101103.88;1043358;28;1209;-69
2023/03/29 02:58:30;;;;;;;;;;;;;;;13.08;65.41;101104.59;1044147;28;678;-71
2023/03/29 02:59:23;;;;;;;;;;;;;;;13.06;65.53;101103.88;1043355;28;772;-69
2023/03/29 03:00:13;;;;;;;;;;;;;;;13.05;65.63;101102.16;1044947;28;1139;-69
2023/03/29 03:01:05;;;;;;;;;;;;;;;13.05;65.27;101099.50;1044364;28;805;-70
2023/03/29 03:01:57;;;;;;;;;;;;;;;13.06;65.40;101098.53;1045740;28;1208;-70
2023/03/29 03:02:47;;;;;;;;;;;;;;;13.03;65.56;101101.41;1041174;28;1007;-69
2023/03/29 03:03:38;;;;;;;;;;;;;;;13.03;65.34;101096.91;1041228;28;1431;-69
2023/03/29 03:04:28;;;;;;;;;;;;;;;13.01;65.84;101092.63;1040462;28;1151;-69
2023/03/29 03:05:18;;;;;;;;;;;;;;;13.02;65.86;101092.53;1040753;28;725;-68
2023/03/29 03:06:09;;;;;;;;;;;;;;;13.04;65.83;101100.44;1044210;28;774;-70
2023/03/29 03:06:59;;;;;;;;;;;;;;;13.04;65.27;101103.13;1044754;28;658;-69
2023/03/29 03:07:50;;;;;;;;;;;;;;;13.04;65.04;101105.81;1043468;28;961;-71
2023/03/29 03:08:41;;;;;;;;;;;;;;;13.03;65.16;101101.41;1043654;28;1186;-70
2023/03/29 03:09:31;;;;;;;;;;;;;;;13.04;65.80;101100.44;1045091;28;619;-70
2023/03/29 03:10:22;;;;;;;;;;;;;;;13.04;65.12;101100.44;1042039;28;669;-70
2023/03/29 03:11:14;;;;;;;;;;;;;;;13.05;65.52;101097.66;1044374;28;1539;-70
2023/03/29 03:12:05;;;;;;;;;;;;;;;13.06;65.56;101098.53;1042807;28;637;-71
2023/03/29 03:12:55;;;;;;;;;;;;;;;13.07;64.95;101097.56;1043652;28;1081;-71
2023/03/29 03:13:45;;;;;;;;;;;;;;;13.08;64.87;101097.44;1044123;28;744;-70
2023/03/29 03:14:36;;;;;;;;;;;;;;;13.07;65.58;101089.53;1044198;28;713;-70
2023/03/29 03:15:27;;;;;;;;;;;;;;;13.07;64.86;101089.53;1044017;28;753;-70
2023/03/29 03:16:17;;;;;;;;;;;;;;;13.06;64.95;101088.69;1045460;28;672;-70
2023/03/29 03:17:08;;;;;;;;;;;;;;;13.05;65.48;101086.13;1045333;28;525;-70
2023/03/29 03:17:59;;;;;;;;;;;;;;;13.05;65.29;101086.97;1045184;28;1075;-70
2023/03/29 03:18:50;;;;;;;;;;;;;;;13.06;65.74;101088.69;1041256;28;646;-70
2023/03/29 03:19:40;;;;;;;;;;;;;;;13.06;64.91;101090.50;1039913;28;1166;-70
2023/03/29 03:20:31;;;;;;;;;;;;;;;13.05;65.71;101086.97;1045313;28;685;-70
2023/03/29 03:21:21;;;;;;;;;;;;;;;13.04;65.54;101085.25;1043819;28;1577;-70
2023/03/29 03:22:12;;;;;;;;;;;;;;;13.04;65.17;101085.25;1044414;28;626;-70
2023/03/29 03:23:03;;;;;;;;;;;;;;;13.05;65.04;101080.75;1042479;28;962;-70
2023/03/29 03:23:53;;;;;;;;;;;;;;;13.05;65.20;101080.75;1045242;28;637;-70
2023/03/29 03:24:44;;;;;;;;;;;;;;;13.05;65.13;101076.25;1044514;28;1217;-70
2023/03/29 03:25:35;;;;;;;;;;;;;;;13.04;65.31;101077.22;1043537;28;708;-70
2023/03/29 03:26:28;;;;;;;;;;;;;;;13.03;65.50;101072.00;1044613;28;1209;-70
2023/03/29 03:27:19;;;;;;;;;;;;;;;13.03;65.68;101072.84;1043560;28;645;-70
2023/03/29 03:28:10;;;;;;;;;;;;;;;13.04;65.77;101068.34;1043482;28;1071;-70
2023/03/29 03:29:00;;;;;;;;;;;;;;;13.04;65.53;101071.88;1045459;28;576;-70
2023/03/29 03:29:51;;;;;;;;;;;;;;;13.03;65.64;101072.84;1045124;28;936;-70
2023/03/29 03:30:41;;;;;;;;;;;;;;;13.04;65.02;101068.34;1045372;28;1229;-70
2023/03/29 03:31:32;;;;;;;;;;;;;;;13.04;64.93;101071.88;1044261;28;1392;-70
2023/03/29 03:32:22;;;;;;;;;;;;;;;13.06;65.66;101069.09;1044504;28;1185;-70
2023/03/29 03:33:13;;;;;;;;;;;;;;;13.05;65.83;101070.91;1041790;28;635;-70
2023/03/29 03:34:03;;;;;;;;;;;;;;;13.04;65.48;101071.03;1041264;28;758;-70
2023/03/29 03:34:54;;;;;;;;;;;;;;;13.04;65.53;101063.00;1041693;28;1027;-70
2023/03/29 03:35:45;;;;;;;;;;;;;;;13.05;65.08;101068.25;1040247;28;673;-70
2023/03/29 03:36:35;;;;;;;;;;;;;;;13.06;65.82;101074.44;1045272;28;655;-70
2023/03/29 03:37:26;;;;;;;;;;;;;;;13.06;65.51;101077.13;1040585;28;694;-70
2023/03/29 03:38:16;;;;;;;;;;;;;;;13.05;65.25;101070.91;1044240;28;695;-70
2023/03/29 03:39:07;;;;;;;;;;;;;;;13.05;65.43;101067.38;1045130;28;1074;-71
2023/03/29 03:39:58;;;;;;;;;;;;;;;13.05;64.99;101075.41;1044878;28;676;-71
2023/03/29 03:40:48;;;;;;;;;;;;;;;13.04;65.22;101079.06;1044313;28;1134;-70
2023/03/29 03:41:39;;;;;;;;;;;;;;;13.03;65.18;101072.00;1044740;28;1570;-70
2023/03/29 03:42:29;;;;;;;;;;;;;;;13.04;65.72;101074.56;1042796;28;1965;-70
2023/03/29 03:43:20;;;;;;;;;;;;;;;13.04;65.21;101084.41;1040595;28;769;-70
2023/03/29 03:44:12;;;;;;;;;;;;;;;13.03;65.07;101080.00;1043290;28;960;-70
2023/03/29 03:45:02;;;;;;;;;;;;;;;13.04;65.05;101076.38;1044855;28;622;-70
2023/03/29 03:45:52;;;;;;;;;;;;;;;13.03;65.88;101078.19;1045037;28;987;-70
2023/03/29 03:46:43;;;;;;;;;;;;;;;13.01;65.91;101076.59;1045299;28;680;-70
2023/03/29 03:47:33;;;;;;;;;;;;;;;13.01;65.86;101074.78;1045424;28;653;-71
2023/03/29 03:48:24;;;;;;;;;;;;;;;13.03;65.39;101077.34;1040595;28;689;-70
2023/03/29 03:49:15;;;;;;;;;;;;;;;13.03;66.07;101080.00;1044548;28;1055;-70
2023/03/29 03:50:05;;;;;;;;;;;;;;;13.01;65.23;101072.09;1044871;28;708;-70
2023/03/29 03:50:56;;;;;;;;;;;;;;;13.04;65.91;101074.56;1045062;28;1023;-70
2023/03/29 03:51:47;;;;;;;;;;;;;;;13.04;65.30;101068.34;1045341;28;700;-71
2023/03/29 03:52:37;;;;;;;;;;;;;;;13.02;65.34;101065.78;1041575;28;656;-70
2023/03/29 03:53:28;;;;;;;;;;;;;;;13.02;65.36;101071.13;1041474;28;772;-70
2023/03/29 03:54:18;;;;;;;;;;;;;;;13.02;66.00;101070.28;1044470;28;1169;-70
2023/03/29 03:55:09;;;;;;;;;;;;;;;13.03;65.17;101072.84;1044578;28;650;-70
2023/03/29 03:56:01;;;;;;;;;;;;;;;13.03;65.51;101078.19;1043629;28;1158;-70
2023/03/29 03:56:51;;;;;;;;;;;;;;;13.04;65.37;101074.56;1044725;28;690;-70
2023/03/29 03:57:42;;;;;;;;;;;;;;;13.04;65.80;101071.03;1041180;28;657;-70
2023/03/29 03:58:32;;;;;;;;;;;;;;;13.04;65.47;101069.19;1042901;28;948;-70
2023/03/29 03:59:23;;;;;;;;;;;;;;;13.05;65.98;101070.06;1046108;28;693;-70
2023/03/29 04:00:19;;;;;;;;;;;;;;;13.05;65.04;101075.41;1046123;28;690;-70
2023/03/29 04:01:10;;;;;;;;;;;;;;;13.05;65.65;101075.41;1041349;28;626;-70
2023/03/29 04:02:01;;;;;;;;;;;;;;;13.05;65.46;101073.59;1044194;28;932;-71
2023/03/29 04:02:53;;;;;;;;;;;;;;;13.04;65.16;101071.03;1042618;28;641;-70
2023/03/29 04:03:43;;;;;;;;;;;;;;;13.02;65.87;101075.63;1041918;28;633;-71
2023/03/29 04:04:33;;;;;;;;;;;;;;;13.03;65.61;101077.34;1045021;28;732;-71
2023/03/29 04:05:24;;;;;;;;;;;;;;;13.02;66.05;101068.47;1041636;28;1173;-70
2023/03/29 04:06:14;;;;;;;;;;;;;;;13.04;65.58;101068.34;1041091;28;630;-70
2023/03/29 04:07:05;;;;;;;;;;;;;;;13.03;65.15;101066.63;1041686;28;1142;-70
2023/03/29 04:07:55;;;;;;;;;;;;;;;13.03;65.17;101061.28;1044961;28;705;-69
2023/03/29 04:08:46;;;;;;;;;;;;;;;13.01;65.90;101056.03;1045618;28;645;-70
2023/03/29 04:09:37;;;;;;;;;;;;;;;13.02;65.96;101062.25;1042067;28;704;-70
2023/03/29 04:10:28;;;;;;;;;;;;;;;13.03;65.83;101063.97;1044634;28;673;-70
2023/03/29 04:11:19;;;;;;;;;;;;;;;13.04;65.45;101063.84;1044117;28;680;-70
2023/03/29 04:12:09;;;;;;;;;;;;;;;13.03;65.66;101061.28;1041231;28;642;-69
2023/03/29 04:13:01;;;;;;;;;;;;;;;13.03;65.30;101066.63;1044789;28;876;-69
2023/03/29 04:13:51;;;;;;;;;;;;;;;13.03;65.20;101059.47;1044830;28;653;-69
2023/03/29 04:14:42;;;;;;;;;;;;;;;13.06;65.01;101071.78;1044634;28;1152;-69
2023/03/29 04:15:32;;;;;;;;;;;;;;;13.05;65.18;101059.34;1045135;28;1181;-70
2023/03/29 04:16:22;;;;;;;;;;;;;;;13.06;65.58;101066.41;1045544;28;812;-69
2023/03/29 04:17:13;;;;;;;;;;;;;;;13.05;65.76;101062.03;1045431;28;689;-70
2023/03/29 04:18:03;;;;;;;;;;;;;;;13.05;65.12;101064.72;1045489;28;645;-70
2023/03/29 04:18:54;;;;;;;;;;;;;;;13.05;65.13;101064.72;1044761;28;1143;-70
2023/03/29 04:19:44;;;;;;;;;;;;;;;13.04;65.92;101063.00;1041903;28;630;-70
2023/03/29 04:20:35;;;;;;;;;;;;;;;13.03;65.38;101055.94;1041237;28;1174;-69
2023/03/29 04:21:26;;;;;;;;;;;;;;;13.02;66.00;101048.88;1042410;28;1472;-70
2023/03/29 04:22:16;;;;;;;;;;;;;;;13.03;65.85;101061.28;1040984;28;939;-70
2023/03/29 04:23:06;;;;;;;;;;;;;;;13.03;66.04;101058.63;1041076;28;665;-69
2023/03/29 04:23:57;;;;;;;;;;;;;;;13.02;65.40;101062.25;1042849;28;1100;-69
2023/03/29 04:24:47;;;;;;;;;;;;;;;13.02;65.31;101054.22;1045353;28;1166;-70
2023/03/29 04:25:38;;;;;;;;;;;;;;;13.02;65.96;101062.25;1045441;28;741;-70
2023/03/29 04:26:28;;;;;;;;;;;;;;;13.02;65.94;101056.91;1044288;28;1159;-70